sensor_id;sensor_type;location;lat;lon;timestamp;pressure;altitude;pressure_sealevel;temperature;humidity
2214;BME280;1113;42.018;23.986;2022-07-24T00:00:23;93021.13;;;19.03;60.45
2214;BME280;1113;42.018;23.986;2022-07-24T00:02:50;93026.53;;;18.90;61.20
2214;BME280;1113;42.018;23.986;2022-07-24T00:05:17;93028.59;;;18.81;61.44
2214;BME280;1113;42.018;23.986;2022-07-24T00:07:43;93022.34;;;18.86;60.67
2214;BME280;1113;42.018;23.986;2022-07-24T00:10:12;93023.91;;;18.90;60.70
2214;BME280;1113;42.018;23.986;2022-07-24T00:12:39;93022.56;;;19.00;59.67
2214;BME280;1113;42.018;23.986;2022-07-24T00:15:06;93024.47;;;19.03;60.20
2214;BME280;1113;42.018;23.986;2022-07-24T00:17:33;93019.94;;;19.00;60.38
2214;BME280;1113;42.018;23.986;2022-07-24T00:20:00;93017.34;;;19.00;59.57
2214;BME280;1113;42.018;23.986;2022-07-24T00:22:27;93021.56;;;19.08;60.44
2214;BME280;1113;42.018;23.986;2022-07-24T00:24:54;93025.66;;;19.06;60.35
2214;BME280;1113;42.018;23.986;2022-07-24T00:27:22;93026.97;;;18.73;61.18
2214;BME280;1113;42.018;23.986;2022-07-24T00:29:49;93028.19;;;18.79;61.80
2214;BME280;1113;42.018;23.986;2022-07-24T00:32:16;93028.69;;;18.66;61.67
2214;BME280;1113;42.018;23.986;2022-07-24T00:34:43;93022.69;;;18.65;61.87
2214;BME280;1113;42.018;23.986;2022-07-24T00:37:10;93029.38;;;18.63;62.18
2214;BME280;1113;42.018;23.986;2022-07-24T00:39:37;93030.91;;;18.64;62.24
2214;BME280;1113;42.018;23.986;2022-07-24T00:42:04;93012.38;;;18.53;62.18
2214;BME280;1113;42.018;23.986;2022-07-24T00:44:33;93018.16;;;18.43;63.37
2214;BME280;1113;42.018;23.986;2022-07-24T00:46:59;93028.22;;;18.41;63.02
2214;BME280;1113;42.018;23.986;2022-07-24T00:49:26;93028.69;;;18.46;62.97
2214;BME280;1113;42.018;23.986;2022-07-24T00:51:53;93032.13;;;18.50;63.15
2214;BME280;1113;42.018;23.986;2022-07-24T00:54:21;93030.97;;;18.48;63.80
2214;BME280;1113;42.018;23.986;2022-07-24T00:56:51;93029.91;;;18.52;64.16
2214;BME280;1113;42.018;23.986;2022-07-24T00:59:19;93029.56;;;18.54;65.79
2214;BME280;1113;42.018;23.986;2022-07-24T01:01:48;93019.56;;;18.37;65.01
2214;BME280;1113;42.018;23.986;2022-07-24T01:04:15;93025.06;;;18.32;64.87
2214;BME280;1113;42.018;23.986;2022-07-24T01:06:43;93021.63;;;18.27;66.73
2214;BME280;1113;42.018;23.986;2022-07-24T01:09:11;93014.72;;;18.00;67.66
2214;BME280;1113;42.018;23.986;2022-07-24T01:11:38;93012.59;;;17.86;67.35
2214;BME280;1113;42.018;23.986;2022-07-24T01:14:06;93015.91;;;17.67;67.85
2214;BME280;1113;42.018;23.986;2022-07-24T01:16:33;93012.69;;;17.58;67.66
2214;BME280;1113;42.018;23.986;2022-07-24T01:19:01;93006.06;;;17.45;67.63
2214;BME280;1113;42.018;23.986;2022-07-24T01:21:30;93005.34;;;17.29;69.14
2214;BME280;1113;42.018;23.986;2022-07-24T01:23:57;93007.47;;;17.23;69.31
2214;BME280;1113;42.018;23.986;2022-07-24T01:26:24;93005.75;;;17.31;68.43
2214;BME280;1113;42.018;23.986;2022-07-24T01:28:51;93007.34;;;17.35;68.69
2214;BME280;1113;42.018;23.986;2022-07-24T01:31:18;93006.81;;;17.46;67.05
2214;BME280;1113;42.018;23.986;2022-07-24T01:33:45;93002.44;;;17.50;67.78
2214;BME280;1113;42.018;23.986;2022-07-24T01:36:11;93001.97;;;17.28;68.80
2214;BME280;1113;42.018;23.986;2022-07-24T01:38:40;93002.06;;;17.16;69.00
2214;BME280;1113;42.018;23.986;2022-07-24T01:41:06;93003.75;;;17.24;68.17
2214;BME280;1113;42.018;23.986;2022-07-24T01:43:33;92999.69;;;17.11;69.99
2214;BME280;1113;42.018;23.986;2022-07-24T01:46:00;93002.16;;;17.04;70.40
2214;BME280;1113;42.018;23.986;2022-07-24T01:48:27;92998.78;;;17.03;69.94
2214;BME280;1113;42.018;23.986;2022-07-24T01:50:54;92999.03;;;16.98;70.01
2214;BME280;1113;42.018;23.986;2022-07-24T01:53:21;92990.53;;;16.86;71.50
2214;BME280;1113;42.018;23.986;2022-07-24T01:55:51;93001.56;;;16.79;71.11
2214;BME280;1113;42.018;23.986;2022-07-24T01:58:18;92994.06;;;16.93;69.27
2214;BME280;1113;42.018;23.986;2022-07-24T02:00:46;92993.41;;;16.96;69.33
2214;BME280;1113;42.018;23.986;2022-07-24T02:03:13;92994.25;;;16.85;69.95
2214;BME280;1113;42.018;23.986;2022-07-24T02:05:40;93000.47;;;16.80;70.46
2214;BME280;1113;42.018;23.986;2022-07-24T02:08:07;92991.28;;;16.86;70.10
2214;BME280;1113;42.018;23.986;2022-07-24T02:10:34;92990.19;;;17.03;69.96
2214;BME280;1113;42.018;23.986;2022-07-24T02:13:02;92989.28;;;16.95;70.99
2214;BME280;1113;42.018;23.986;2022-07-24T02:15:29;92997.69;;;16.89;70.71
2214;BME280;1113;42.018;23.986;2022-07-24T02:17:58;92994.56;;;16.83;70.96
2214;BME280;1113;42.018;23.986;2022-07-24T02:20:25;92987.34;;;16.92;71.04
2214;BME280;1113;42.018;23.986;2022-07-24T02:22:53;92994.66;;;17.02;70.22
2214;BME280;1113;42.018;23.986;2022-07-24T02:25:20;92992.97;;;16.94;70.30
2214;BME280;1113;42.018;23.986;2022-07-24T02:27:47;92995.06;;;17.04;69.72
2214;BME280;1113;42.018;23.986;2022-07-24T02:30:17;92994.16;;;17.13;68.99
2214;BME280;1113;42.018;23.986;2022-07-24T02:32:44;92987.94;;;17.17;68.64
2214;BME280;1113;42.018;23.986;2022-07-24T02:35:11;92996.19;;;17.19;68.15
2214;BME280;1113;42.018;23.986;2022-07-24T02:37:40;92986.41;;;17.00;71.05
2214;BME280;1113;42.018;23.986;2022-07-24T02:40:09;92995.16;;;16.77;73.03
2214;BME280;1113;42.018;23.986;2022-07-24T02:42:37;92997.72;;;16.61;74.34
2214;BME280;1113;42.018;23.986;2022-07-24T02:45:05;92993.38;;;16.65;72.84
2214;BME280;1113;42.018;23.986;2022-07-24T02:47:34;92991.97;;;16.67;73.69
2214;BME280;1113;42.018;23.986;2022-07-24T02:50:02;93006.88;;;16.55;74.63
2214;BME280;1113;42.018;23.986;2022-07-24T02:52:29;92999.44;;;16.41;75.37
2214;BME280;1113;42.018;23.986;2022-07-24T02:54:55;93007.00;;;16.30;76.77
2214;BME280;1113;42.018;23.986;2022-07-24T02:57:22;93003.00;;;16.21;78.16
2214;BME280;1113;42.018;23.986;2022-07-24T02:59:51;93004.88;;;16.20;77.67
2214;BME280;1113;42.018;23.986;2022-07-24T03:02:18;93002.78;;;16.26;75.71
2214;BME280;1113;42.018;23.986;2022-07-24T03:04:47;92999.22;;;16.18;77.83
2214;BME280;1113;42.018;23.986;2022-07-24T03:07:13;92997.06;;;16.20;77.56
2214;BME280;1113;42.018;23.986;2022-07-24T03:09:40;92997.72;;;16.17;78.02
2214;BME280;1113;42.018;23.986;2022-07-24T03:12:07;92997.63;;;16.01;80.31
2214;BME280;1113;42.018;23.986;2022-07-24T03:14:34;92997.03;;;15.92;80.15
2214;BME280;1113;42.018;23.986;2022-07-24T03:17:03;92992.72;;;15.84;80.06
2214;BME280;1113;42.018;23.986;2022-07-24T03:19:30;93001.50;;;15.80;80.45
2214;BME280;1113;42.018;23.986;2022-07-24T03:21:58;93000.19;;;15.86;80.84
2214;BME280;1113;42.018;23.986;2022-07-24T03:24:25;92999.94;;;15.91;80.63
2214;BME280;1113;42.018;23.986;2022-07-24T03:26:52;92988.59;;;15.83;81.71
2214;BME280;1113;42.018;23.986;2022-07-24T03:29:18;92999.94;;;15.91;80.96
2214;BME280;1113;42.018;23.986;2022-07-24T03:31:45;92992.16;;;15.91;80.90
2214;BME280;1113;42.018;23.986;2022-07-24T03:34:12;92993.78;;;15.83;81.43
2214;BME280;1113;42.018;23.986;2022-07-24T03:36:39;92997.19;;;15.71;83.19
2214;BME280;1113;42.018;23.986;2022-07-24T03:39:07;92987.44;;;15.68;83.30
2214;BME280;1113;42.018;23.986;2022-07-24T03:41:34;92993.69;;;15.80;82.17
2214;BME280;1113;42.018;23.986;2022-07-24T03:44:02;92999.81;;;15.99;80.47
2214;BME280;1113;42.018;23.986;2022-07-24T03:46:28;92997.28;;;16.15;79.25
2214;BME280;1113;42.018;23.986;2022-07-24T03:48:56;93000.25;;;16.29;77.66
2214;BME280;1113;42.018;23.986;2022-07-24T03:51:23;93002.47;;;16.43;76.69
2214;BME280;1113;42.018;23.986;2022-07-24T03:53:50;93008.19;;;16.49;77.67
2214;BME280;1113;42.018;23.986;2022-07-24T03:56:18;93003.50;;;16.54;77.46
2214;BME280;1113;42.018;23.986;2022-07-24T03:58:45;92998.13;;;16.63;77.38
2214;BME280;1113;42.018;23.986;2022-07-24T04:01:12;93001.31;;;16.68;78.61
2214;BME280;1113;42.018;23.986;2022-07-24T04:03:39;92995.94;;;16.77;77.27
2214;BME280;1113;42.018;23.986;2022-07-24T04:06:06;92999.13;;;16.86;76.37
2214;BME280;1113;42.018;23.986;2022-07-24T04:08:33;92996.59;;;16.90;76.38
2214;BME280;1113;42.018;23.986;2022-07-24T04:11:00;92996.84;;;17.00;75.13
2214;BME280;1113;42.018;23.986;2022-07-24T04:13:30;92986.56;;;17.08;75.47
2214;BME280;1113;42.018;23.986;2022-07-24T04:15:57;92993.03;;;17.14;77.78
2214;BME280;1113;42.018;23.986;2022-07-24T04:18:24;92988.78;;;17.21;77.50
2214;BME280;1113;42.018;23.986;2022-07-24T04:20:50;92986.75;;;17.30;77.18
2214;BME280;1113;42.018;23.986;2022-07-24T04:23:17;92988.06;;;17.40;76.82
2214;BME280;1113;42.018;23.986;2022-07-24T04:25:44;92991.16;;;17.46;77.03
2214;BME280;1113;42.018;23.986;2022-07-24T04:28:11;92994.50;;;17.62;76.06
2214;BME280;1113;42.018;23.986;2022-07-24T04:30:40;92986.94;;;17.73;75.52
2214;BME280;1113;42.018;23.986;2022-07-24T04:33:07;92984.13;;;17.81;74.72
2214;BME280;1113;42.018;23.986;2022-07-24T04:35:34;92981.25;;;17.86;75.06
2214;BME280;1113;42.018;23.986;2022-07-24T04:38:00;92989.56;;;17.92;75.13
2214;BME280;1113;42.018;23.986;2022-07-24T04:40:27;92989.97;;;17.94;75.40
2214;BME280;1113;42.018;23.986;2022-07-24T04:42:54;92988.13;;;17.94;74.33
2214;BME280;1113;42.018;23.986;2022-07-24T04:45:21;92985.56;;;17.98;74.97
2214;BME280;1113;42.018;23.986;2022-07-24T04:47:49;92993.41;;;17.98;74.46
2214;BME280;1113;42.018;23.986;2022-07-24T04:50:16;92992.03;;;18.04;74.90
2214;BME280;1113;42.018;23.986;2022-07-24T04:52:43;92995.66;;;18.19;73.10
2214;BME280;1113;42.018;23.986;2022-07-24T04:55:11;92997.63;;;18.22;72.49
2214;BME280;1113;42.018;23.986;2022-07-24T04:57:38;92999.06;;;18.39;72.82
2214;BME280;1113;42.018;23.986;2022-07-24T05:00:08;93000.97;;;18.42;72.76
2214;BME280;1113;42.018;23.986;2022-07-24T05:02:35;93000.47;;;18.55;71.38
2214;BME280;1113;42.018;23.986;2022-07-24T05:05:05;92995.78;;;18.65;71.03
2214;BME280;1113;42.018;23.986;2022-07-24T05:07:32;92993.09;;;18.80;72.26
2214;BME280;1113;42.018;23.986;2022-07-24T05:09:59;92992.03;;;18.85;73.81
2214;BME280;1113;42.018;23.986;2022-07-24T05:12:28;92987.28;;;18.90;72.12
2214;BME280;1113;42.018;23.986;2022-07-24T05:14:55;92988.59;;;19.04;70.47
2214;BME280;1113;42.018;23.986;2022-07-24T05:17:22;92989.06;;;19.09;70.28
2214;BME280;1113;42.018;23.986;2022-07-24T05:19:49;92984.69;;;19.17;70.72
2214;BME280;1113;42.018;23.986;2022-07-24T05:22:17;92977.03;;;19.28;70.80
2214;BME280;1113;42.018;23.986;2022-07-24T05:24:44;92978.69;;;19.39;70.16
2214;BME280;1113;42.018;23.986;2022-07-24T05:27:11;92976.59;;;19.52;69.53
2214;BME280;1113;42.018;23.986;2022-07-24T05:29:38;92975.63;;;19.60;69.19
2214;BME280;1113;42.018;23.986;2022-07-24T05:32:05;92976.56;;;19.75;69.78
2214;BME280;1113;42.018;23.986;2022-07-24T05:34:32;92986.44;;;19.85;68.98
2214;BME280;1113;42.018;23.986;2022-07-24T05:36:59;92980.19;;;19.93;69.52
2214;BME280;1113;42.018;23.986;2022-07-24T05:39:27;92982.16;;;20.03;68.97
2214;BME280;1113;42.018;23.986;2022-07-24T05:41:54;92988.66;;;20.13;68.61
2214;BME280;1113;42.018;23.986;2022-07-24T05:44:21;92978.59;;;20.18;68.73
2214;BME280;1113;42.018;23.986;2022-07-24T05:46:47;92980.56;;;20.29;68.52
2214;BME280;1113;42.018;23.986;2022-07-24T05:49:14;92975.06;;;20.37;67.18
2214;BME280;1113;42.018;23.986;2022-07-24T05:51:41;92978.19;;;20.46;67.59
2214;BME280;1113;42.018;23.986;2022-07-24T05:54:08;92980.22;;;20.64;66.06
2214;BME280;1113;42.018;23.986;2022-07-24T05:56:36;92975.16;;;20.82;65.31
2214;BME280;1113;42.018;23.986;2022-07-24T05:59:03;92965.56;;;21.00;65.15
2214;BME280;1113;42.018;23.986;2022-07-24T06:01:30;92969.38;;;21.09;64.29
2214;BME280;1113;42.018;23.986;2022-07-24T06:03:58;92968.00;;;21.23;64.80
2214;BME280;1113;42.018;23.986;2022-07-24T06:06:24;92966.97;;;21.34;63.19
2214;BME280;1113;42.018;23.986;2022-07-24T06:08:51;92956.19;;;21.50;62.13
2214;BME280;1113;42.018;23.986;2022-07-24T06:11:18;92954.75;;;21.63;62.08
2214;BME280;1113;42.018;23.986;2022-07-24T06:13:47;92957.47;;;21.81;62.03
2214;BME280;1113;42.018;23.986;2022-07-24T06:16:14;92957.94;;;21.94;60.60
2214;BME280;1113;42.018;23.986;2022-07-24T06:18:41;92951.97;;;22.04;62.25
2214;BME280;1113;42.018;23.986;2022-07-24T06:21:07;92949.00;;;22.16;60.83
2214;BME280;1113;42.018;23.986;2022-07-24T06:23:34;92946.78;;;22.29;60.65
2214;BME280;1113;42.018;23.986;2022-07-24T06:26:01;92940.84;;;22.46;58.32
2214;BME280;1113;42.018;23.986;2022-07-24T06:28:28;92942.72;;;22.56;58.22
2214;BME280;1113;42.018;23.986;2022-07-24T06:30:56;92934.09;;;22.70;57.17
2214;BME280;1113;42.018;23.986;2022-07-24T06:33:23;92937.50;;;22.85;56.83
2214;BME280;1113;42.018;23.986;2022-07-24T06:35:50;92937.53;;;22.99;58.67
2214;BME280;1113;42.018;23.986;2022-07-24T06:38:17;92926.63;;;23.15;59.02
2214;BME280;1113;42.018;23.986;2022-07-24T06:40:44;92925.84;;;23.32;58.49
2214;BME280;1113;42.018;23.986;2022-07-24T06:43:10;92929.19;;;23.54;57.65
2214;BME280;1113;42.018;23.986;2022-07-24T06:45:37;92928.81;;;23.70;56.37
2214;BME280;1113;42.018;23.986;2022-07-24T06:48:06;92927.59;;;23.88;56.70
2214;BME280;1113;42.018;23.986;2022-07-24T06:50:33;92928.31;;;24.03;57.91
2214;BME280;1113;42.018;23.986;2022-07-24T06:53:00;92922.97;;;24.21;56.62
2214;BME280;1113;42.018;23.986;2022-07-24T06:55:27;92921.38;;;24.38;56.21
2214;BME280;1113;42.018;23.986;2022-07-24T06:57:54;92914.88;;;24.57;54.51
2214;BME280;1113;42.018;23.986;2022-07-24T07:00:21;92914.41;;;24.72;53.58
2214;BME280;1113;42.018;23.986;2022-07-24T07:02:48;92913.50;;;24.90;54.45
2214;BME280;1113;42.018;23.986;2022-07-24T07:05:17;92916.81;;;25.08;53.78
2214;BME280;1113;42.018;23.986;2022-07-24T07:07:44;92916.25;;;25.27;52.92
2214;BME280;1113;42.018;23.986;2022-07-24T07:10:11;92905.53;;;25.41;50.66
2214;BME280;1113;42.018;23.986;2022-07-24T07:12:37;92907.66;;;25.57;51.82
2214;BME280;1113;42.018;23.986;2022-07-24T07:15:05;92904.13;;;25.71;51.42
2214;BME280;1113;42.018;23.986;2022-07-24T07:17:32;92907.72;;;25.88;49.69
2214;BME280;1113;42.018;23.986;2022-07-24T07:19:59;92896.59;;;26.03;50.44
2214;BME280;1113;42.018;23.986;2022-07-24T07:22:27;92905.44;;;26.20;47.51
2214;BME280;1113;42.018;23.986;2022-07-24T07:24:54;92901.84;;;26.37;46.21
2214;BME280;1113;42.018;23.986;2022-07-24T07:27:21;92898.22;;;26.51;47.31
2214;BME280;1113;42.018;23.986;2022-07-24T07:29:48;92896.50;;;26.68;46.30
2214;BME280;1113;42.018;23.986;2022-07-24T07:32:15;92897.38;;;26.85;46.06
2214;BME280;1113;42.018;23.986;2022-07-24T07:34:42;92901.25;;;27.03;45.49
2214;BME280;1113;42.018;23.986;2022-07-24T07:37:09;92896.78;;;27.24;46.38
2214;BME280;1113;42.018;23.986;2022-07-24T07:39:37;92889.94;;;27.46;44.45
2214;BME280;1113;42.018;23.986;2022-07-24T07:42:04;92890.41;;;27.64;42.73
2214;BME280;1113;42.018;23.986;2022-07-24T07:44:31;92886.53;;;27.69;42.75
2214;BME280;1113;42.018;23.986;2022-07-24T07:46:57;92890.66;;;27.90;44.38
2214;BME280;1113;42.018;23.986;2022-07-24T07:49:24;92890.25;;;28.11;44.42
2214;BME280;1113;42.018;23.986;2022-07-24T07:51:51;92888.66;;;28.34;44.05
2214;BME280;1113;42.018;23.986;2022-07-24T07:54:18;92890.69;;;28.46;40.87
2214;BME280;1113;42.018;23.986;2022-07-24T07:56:47;92894.19;;;28.59;41.90
2214;BME280;1113;42.018;23.986;2022-07-24T07:59:14;92896.19;;;28.71;40.37
2214;BME280;1113;42.018;23.986;2022-07-24T08:01:40;92886.06;;;28.82;40.22
2214;BME280;1113;42.018;23.986;2022-07-24T08:04:07;92889.16;;;28.97;42.09
2214;BME280;1113;42.018;23.986;2022-07-24T08:06:34;92886.91;;;29.12;40.91
2214;BME280;1113;42.018;23.986;2022-07-24T08:09:01;92883.16;;;29.26;39.25
2214;BME280;1113;42.018;23.986;2022-07-24T08:11:28;92877.66;;;29.33;38.95
2214;BME280;1113;42.018;23.986;2022-07-24T08:13:56;92873.97;;;29.43;39.36
2214;BME280;1113;42.018;23.986;2022-07-24T08:16:23;92871.91;;;29.50;39.08
2214;BME280;1113;42.018;23.986;2022-07-24T08:18:50;92867.03;;;29.62;39.83
2214;BME280;1113;42.018;23.986;2022-07-24T08:21:17;92866.25;;;29.77;40.04
2214;BME280;1113;42.018;23.986;2022-07-24T08:23:44;92867.78;;;29.91;40.53
2214;BME280;1113;42.018;23.986;2022-07-24T08:26:11;92869.22;;;30.08;41.26
2214;BME280;1113;42.018;23.986;2022-07-24T08:28:38;92863.81;;;30.25;40.65
2214;BME280;1113;42.018;23.986;2022-07-24T08:31:10;92855.72;;;30.41;39.62
2214;BME280;1113;42.018;23.986;2022-07-24T08:33:44;92852.19;;;30.57;39.47
2214;BME280;1113;42.018;23.986;2022-07-24T08:36:11;92858.91;;;30.61;39.34
2214;BME280;1113;42.018;23.986;2022-07-24T08:38:38;92861.06;;;30.79;37.23
2214;BME280;1113;42.018;23.986;2022-07-24T08:41:05;92866.56;;;30.97;39.51
2214;BME280;1113;42.018;23.986;2022-07-24T08:43:32;92860.34;;;31.13;38.93
2214;BME280;1113;42.018;23.986;2022-07-24T08:46:00;92853.59;;;31.34;38.25
2214;BME280;1113;42.018;23.986;2022-07-24T08:48:31;92850.00;;;31.50;36.15
2214;BME280;1113;42.018;23.986;2022-07-24T08:50:59;92855.28;;;31.62;36.51
2214;BME280;1113;42.018;23.986;2022-07-24T08:53:26;92851.16;;;31.83;36.42
2214;BME280;1113;42.018;23.986;2022-07-24T08:55:53;92851.56;;;32.04;35.62
2214;BME280;1113;42.018;23.986;2022-07-24T08:58:20;92838.41;;;32.18;34.38
2214;BME280;1113;42.018;23.986;2022-07-24T09:00:47;92853.84;;;32.36;34.63
2214;BME280;1113;42.018;23.986;2022-07-24T09:03:14;92840.34;;;32.49;33.82
2214;BME280;1113;42.018;23.986;2022-07-24T09:05:56;92842.03;;;32.64;31.74
2214;BME280;1113;42.018;23.986;2022-07-24T09:08:23;92844.88;;;32.70;32.18
2214;BME280;1113;42.018;23.986;2022-07-24T09:10:54;92837.09;;;32.85;31.32
2214;BME280;1113;42.018;23.986;2022-07-24T09:13:25;92840.53;;;33.04;32.53
2214;BME280;1113;42.018;23.986;2022-07-24T09:15:52;92838.00;;;33.18;31.26
2214;BME280;1113;42.018;23.986;2022-07-24T09:18:30;92847.13;;;33.39;30.19
2214;BME280;1113;42.018;23.986;2022-07-24T09:20:59;92835.06;;;33.53;29.67
2214;BME280;1113;42.018;23.986;2022-07-24T09:23:38;92834.00;;;33.69;29.76
2214;BME280;1113;42.018;23.986;2022-07-24T09:26:05;92831.50;;;33.83;28.49
2214;BME280;1113;42.018;23.986;2022-07-24T09:28:46;92832.81;;;33.97;29.34
2214;BME280;1113;42.018;23.986;2022-07-24T09:31:13;92836.19;;;34.07;29.17
2214;BME280;1113;42.018;23.986;2022-07-24T09:33:40;92832.75;;;34.15;28.91
2214;BME280;1113;42.018;23.986;2022-07-24T09:36:14;92827.06;;;34.23;29.04
2214;BME280;1113;42.018;23.986;2022-07-24T09:38:47;92822.84;;;34.31;28.20
2214;BME280;1113;42.018;23.986;2022-07-24T09:41:20;92822.56;;;34.38;27.94
2214;BME280;1113;42.018;23.986;2022-07-24T09:43:56;92828.97;;;34.40;27.23
2214;BME280;1113;42.018;23.986;2022-07-24T09:46:25;92826.91;;;34.35;27.37
2214;BME280;1113;42.018;23.986;2022-07-24T09:48:54;92818.88;;;34.35;27.06
2214;BME280;1113;42.018;23.986;2022-07-24T09:51:25;92829.56;;;34.26;27.89
2214;BME280;1113;42.018;23.986;2022-07-24T09:53:53;92821.13;;;34.18;27.88
2214;BME280;1113;42.018;23.986;2022-07-24T09:56:21;92823.09;;;34.09;28.13
2214;BME280;1113;42.018;23.986;2022-07-24T09:58:49;92827.59;;;33.94;27.95
2214;BME280;1113;42.018;23.986;2022-07-24T10:01:18;92818.09;;;33.83;27.50
2214;BME280;1113;42.018;23.986;2022-07-24T10:03:47;92821.53;;;33.84;28.92
2214;BME280;1113;42.018;23.986;2022-07-24T10:06:17;92819.13;;;33.95;29.10
2214;BME280;1113;42.018;23.986;2022-07-24T10:08:47;92811.31;;;34.15;28.89
2214;BME280;1113;42.018;23.986;2022-07-24T10:11:15;92815.72;;;34.37;29.87
2214;BME280;1113;42.018;23.986;2022-07-24T10:13:42;92811.19;;;34.52;27.92
2214;BME280;1113;42.018;23.986;2022-07-24T10:16:26;92817.88;;;34.57;27.50
2214;BME280;1113;42.018;23.986;2022-07-24T10:18:54;92810.56;;;34.57;27.43
2214;BME280;1113;42.018;23.986;2022-07-24T10:21:23;92805.19;;;34.57;27.92
2214;BME280;1113;42.018;23.986;2022-07-24T10:24:11;92811.13;;;34.61;27.92
2214;BME280;1113;42.018;23.986;2022-07-24T10:26:40;92808.78;;;34.54;27.23
2214;BME280;1113;42.018;23.986;2022-07-24T10:29:09;92807.81;;;34.42;27.31
2214;BME280;1113;42.018;23.986;2022-07-24T10:31:38;92814.69;;;34.34;27.46
2214;BME280;1113;42.018;23.986;2022-07-24T10:34:10;92809.63;;;34.27;27.77
2214;BME280;1113;42.018;23.986;2022-07-24T10:36:50;92808.59;;;34.25;28.52
2214;BME280;1113;42.018;23.986;2022-07-24T10:39:24;92811.38;;;34.30;28.21
2214;BME280;1113;42.018;23.986;2022-07-24T10:42:02;92803.59;;;34.51;29.66
2214;BME280;1113;42.018;23.986;2022-07-24T10:44:29;92802.06;;;34.59;28.31
2214;BME280;1113;42.018;23.986;2022-07-24T10:47:01;92809.25;;;34.53;29.05
2214;BME280;1113;42.018;23.986;2022-07-24T10:49:47;92814.66;;;34.43;28.56
2214;BME280;1113;42.018;23.986;2022-07-24T10:52:27;92812.88;;;34.31;28.77
2214;BME280;1113;42.018;23.986;2022-07-24T10:55:24;92805.28;;;34.30;29.42
2214;BME280;1113;42.018;23.986;2022-07-24T10:57:55;92808.25;;;34.32;30.17
2214;BME280;1113;42.018;23.986;2022-07-24T11:00:24;92806.03;;;34.30;29.56
2214;BME280;1113;42.018;23.986;2022-07-24T11:02:59;92801.84;;;34.29;29.76
2214;BME280;1113;42.018;23.986;2022-07-24T11:05:31;92808.72;;;34.30;30.29
2214;BME280;1113;42.018;23.986;2022-07-24T11:11:16;92800.41;;;34.19;29.79
2214;BME280;1113;42.018;23.986;2022-07-24T11:13:46;92799.97;;;34.21;29.75
2214;BME280;1113;42.018;23.986;2022-07-24T11:16:24;92807.69;;;34.37;29.84
2214;BME280;1113;42.018;23.986;2022-07-24T11:19:29;92803.31;;;34.48;29.01
2214;BME280;1113;42.018;23.986;2022-07-24T11:22:05;92805.94;;;34.58;29.35
2214;BME280;1113;42.018;23.986;2022-07-24T11:24:32;92793.91;;;34.77;28.91
2214;BME280;1113;42.018;23.986;2022-07-24T11:27:04;92796.97;;;34.94;28.78
2214;BME280;1113;42.018;23.986;2022-07-24T11:29:34;92782.69;;;34.88;28.91
2214;BME280;1113;42.018;23.986;2022-07-24T11:32:04;92783.91;;;34.87;31.54
2214;BME280;1113;42.018;23.986;2022-07-24T11:34:33;92783.38;;;34.97;30.12
2214;BME280;1113;42.018;23.986;2022-07-24T11:37:02;92786.09;;;35.12;28.21
2214;BME280;1113;42.018;23.986;2022-07-24T11:39:30;92781.28;;;35.16;30.03
2214;BME280;1113;42.018;23.986;2022-07-24T11:41:59;92784.91;;;35.28;29.11
2214;BME280;1113;42.018;23.986;2022-07-24T11:44:29;92778.28;;;35.38;28.22
2214;BME280;1113;42.018;23.986;2022-07-24T11:46:57;92777.69;;;35.19;29.20
2214;BME280;1113;42.018;23.986;2022-07-24T11:49:25;92776.25;;;34.94;28.06
2214;BME280;1113;42.018;23.986;2022-07-24T11:51:54;92772.13;;;34.84;29.05
2214;BME280;1113;42.018;23.986;2022-07-24T11:54:23;92767.06;;;34.86;28.34
2214;BME280;1113;42.018;23.986;2022-07-24T11:56:50;92774.31;;;34.95;29.06
2214;BME280;1113;42.018;23.986;2022-07-24T11:59:22;92770.16;;;35.08;31.14
2214;BME280;1113;42.018;23.986;2022-07-24T12:01:54;92751.19;;;35.12;28.53
2214;BME280;1113;42.018;23.986;2022-07-24T12:04:23;92762.03;;;35.18;28.57
2214;BME280;1113;42.018;23.986;2022-07-24T12:06:50;92762.59;;;35.22;28.31
2214;BME280;1113;42.018;23.986;2022-07-24T12:09:17;92766.03;;;35.22;27.89
2214;BME280;1113;42.018;23.986;2022-07-24T12:11:44;92754.81;;;35.09;27.71
2214;BME280;1113;42.018;23.986;2022-07-24T12:14:14;92761.50;;;34.90;28.19
2214;BME280;1113;42.018;23.986;2022-07-24T12:16:41;92757.53;;;34.76;28.85
2214;BME280;1113;42.018;23.986;2022-07-24T12:19:14;92749.63;;;34.58;28.86
2214;BME280;1113;42.018;23.986;2022-07-24T12:21:42;92761.47;;;34.42;29.08
2214;BME280;1113;42.018;23.986;2022-07-24T12:24:09;92752.91;;;34.19;28.96
2214;BME280;1113;42.018;23.986;2022-07-24T12:26:48;92747.91;;;34.03;29.92
2214;BME280;1113;42.018;23.986;2022-07-24T12:29:15;92752.88;;;33.96;29.97
2214;BME280;1113;42.018;23.986;2022-07-24T12:31:42;92745.75;;;33.93;29.95
2214;BME280;1113;42.018;23.986;2022-07-24T12:34:09;92737.41;;;33.91;30.07
2214;BME280;1113;42.018;23.986;2022-07-24T12:36:37;92740.09;;;33.91;30.54
2214;BME280;1113;42.018;23.986;2022-07-24T12:39:06;92734.13;;;33.96;30.36
2214;BME280;1113;42.018;23.986;2022-07-24T12:41:43;92735.56;;;34.06;30.93
2214;BME280;1113;42.018;23.986;2022-07-24T12:44:10;92730.22;;;34.30;31.07
2214;BME280;1113;42.018;23.986;2022-07-24T12:46:38;92734.50;;;34.45;29.47
2214;BME280;1113;42.018;23.986;2022-07-24T12:49:06;92727.19;;;34.46;30.07
2214;BME280;1113;42.018;23.986;2022-07-24T12:51:46;92726.50;;;34.60;30.53
2214;BME280;1113;42.018;23.986;2022-07-24T12:54:20;92722.28;;;34.68;29.76
2214;BME280;1113;42.018;23.986;2022-07-24T12:56:48;92715.19;;;34.80;30.25
2214;BME280;1113;42.018;23.986;2022-07-24T12:59:27;92717.31;;;35.00;28.98
2214;BME280;1113;42.018;23.986;2022-07-24T13:01:56;92706.31;;;35.13;28.56
2214;BME280;1113;42.018;23.986;2022-07-24T13:04:25;92705.00;;;35.08;28.51
2214;BME280;1113;42.018;23.986;2022-07-24T13:06:55;92707.22;;;34.95;29.22
2214;BME280;1113;42.018;23.986;2022-07-24T13:09:23;92698.22;;;34.98;28.84
2214;BME280;1113;42.018;23.986;2022-07-24T13:11:52;92702.88;;;35.12;27.81
2214;BME280;1113;42.018;23.986;2022-07-24T13:14:21;92692.03;;;35.06;27.99
2214;BME280;1113;42.018;23.986;2022-07-24T13:16:49;92702.78;;;35.06;28.05
2214;BME280;1113;42.018;23.986;2022-07-24T13:19:18;92701.56;;;35.07;27.51